sensor_id;sensor_type;location;lat;lon;timestamp;pressure;altitude;pressure_sealevel;temperature;humidity
47240;BME280;32978;53.586;10.052;2023-02-23T00:01:22;101208.06;;;6.73;100.00
47240;BME280;32978;53.586;10.052;2023-02-23T00:06:19;101204.00;;;6.71;100.00
47240;BME280;32978;53.586;10.052;2023-02-23T00:11:16;101198.88;;;6.64;100.00
47240;BME280;32978;53.586;10.052;2023-02-23T00:16:15;101192.34;;;6.60;100.00
47240;BME280;32978;53.586;10.052;2023-02-23T00:21:30;101192.09;;;6.57;100.00
47240;BME280;32978;53.586;10.052;2023-02-23T00:26:31;101188.34;;;6.52;100.00
47240;BME280;32978;53.586;10.052;2023-02-23T00:31:30;101194.06;;;6.46;100.00
47240;BME280;32978;53.586;10.052;2023-02-23T00:36:29;101189.75;;;6.35;100.00
47240;BME280;32978;53.586;10.052;2023-02-23T00:41:27;101190.84;;;6.39;100.00
47240;BME280;32978;53.586;10.052;2023-02-23T00:46:25;101191.69;;;6.29;100.00
47240;BME280;32978;53.586;10.052;2023-02-23T00:51:24;101185.69;;;6.32;100.00
47240;BME280;32978;53.586;10.052;2023-02-23T00:56:26;101187.06;;;6.29;100.00
47240;BME280;32978;53.586;10.052;2023-02-23T01:01:23;101191.69;;;6.29;100.00
47240;BME280;32978;53.586;10.052;2023-02-23T01:06:20;101190.84;;;6.28;100.00
47240;BME280;32978;53.586;10.052;2023-02-23T01:11:20;101189.47;;;6.31;100.00
47240;BME280;32978;53.586;10.052;2023-02-23T01:16:20;101198.72;;;6.35;100.00
47240;BME280;32978;53.586;10.052;2023-02-23T01:21:19;101192.19;;;6.41;100.00
47240;BME280;32978;53.586;10.052;2023-02-23T01:26:24;101194.66;;;6.32;100.00
47240;BME280;32978;53.586;10.052;2023-02-23T01:31:22;101194.63;;;6.38;100.00
47240;BME280;32978;53.586;10.052;2023-02-23T01:36:19;101188.38;;;6.37;100.00
47240;BME280;32978;53.586;10.052;2023-02-23T01:41:16;101183.53;;;6.34;100.00
47240;BME280;32978;53.586;10.052;2023-02-23T01:46:13;101181.94;;;6.23;100.00
47240;BME280;32978;53.586;10.052;2023-02-23T01:51:15;101183.53;;;6.24;100.00
47240;BME280;32978;53.586;10.052;2023-02-23T01:56:17;101179.78;;;6.20;100.00
47240;BME280;32978;53.586;10.052;2023-02-23T02:01:22;101177.84;;;6.25;100.00
47240;BME280;32978;53.586;10.052;2023-02-23T02:06:21;101178.63;;;6.31;100.00
47240;BME280;32978;53.586;10.052;2023-02-23T02:11:20;101181.84;;;6.38;100.00
47240;BME280;32978;53.586;10.052;2023-02-23T02:27:33;101170.41;;;6.46;100.00
47240;BME280;32978;53.586;10.052;2023-02-23T02:32:54;101180.72;;;6.49;100.00
47240;BME280;32978;53.586;10.052;2023-02-23T02:38:07;101180.19;;;6.52;100.00
47240;BME280;32978;53.586;10.052;2023-02-23T02:43:15;101174.19;;;6.56;100.00
47240;BME280;32978;53.586;10.052;2023-02-23T02:48:22;101170.88;;;6.59;100.00
47240;BME280;32978;53.586;10.052;2023-02-23T02:58:48;101176.94;;;6.50;100.00
47240;BME280;32978;53.586;10.052;2023-02-23T03:03:46;101166.59;;;6.47;100.00
47240;BME280;32978;53.586;10.052;2023-02-23T03:09:10;101172.09;;;6.37;100.00
47240;BME280;32978;53.586;10.052;2023-02-23T03:19:54;101173.69;;;6.38;100.00
47240;BME280;32978;53.586;10.052;2023-02-23T03:25:44;101173.41;;;6.45;100.00
47240;BME280;32978;53.586;10.052;2023-02-23T03:31:25;101177.44;;;6.58;100.00
47240;BME280;32978;53.586;10.052;2023-02-23T03:36:46;101168.69;;;6.66;100.00
47240;BME280;32978;53.586;10.052;2023-02-23T03:42:04;101167.56;;;6.72;100.00
47240;BME280;32978;53.586;10.052;2023-02-23T03:47:24;101164.31;;;6.70;100.00
47240;BME280;32978;53.586;10.052;2023-02-23T03:52:45;101163.78;;;6.73;100.00
47240;BME280;32978;53.586;10.052;2023-02-23T03:58:06;101160.53;;;6.71;100.00
47240;BME280;32978;53.586;10.052;2023-02-23T04:03:24;101161.63;;;6.65;100.00
47240;BME280;32978;53.586;10.052;2023-02-23T04:08:41;101164.63;;;6.63;100.00
47240;BME280;32978;53.586;10.052;2023-02-23T04:14:00;101165.47;;;6.64;100.00
47240;BME280;32978;53.586;10.052;2023-02-23T04:18:57;101158.94;;;6.60;100.00
47240;BME280;32978;53.586;10.052;2023-02-23T04:23:54;101164.63;;;6.63;100.00
47240;BME280;32978;53.586;10.052;2023-02-23T04:28:50;101169.22;;;6.73;100.00
47240;BME280;32978;53.586;10.052;2023-02-23T04:33:47;101170.81;;;6.74;100.00
47240;BME280;32978;53.586;10.052;2023-02-23T04:38:43;101178.69;;;6.76;100.00
47240;BME280;32978;53.586;10.052;2023-02-23T04:43:40;101166.44;;;6.78;100.00
47240;BME280;32978;53.586;10.052;2023-02-23T04:48:36;101162.06;;;6.82;100.00
47240;BME280;32978;53.586;10.052;2023-02-23T04:53:33;101167.19;;;6.89;100.00
47240;BME280;32978;53.586;10.052;2023-02-23T04:58:30;101169.66;;;6.85;100.00
47240;BME280;32978;53.586;10.052;2023-02-23T05:03:27;101174.25;;;6.90;100.00
47240;BME280;32978;53.586;10.052;2023-02-23T05:08:23;101163.38;;;6.90;100.00
47240;BME280;32978;53.586;10.052;2023-02-23T05:13:20;101160.44;;;6.81;100.00
47240;BME280;32978;53.586;10.052;2023-02-23T05:18:17;101164.22;;;6.85;100.00
47240;BME280;32978;53.586;10.052;2023-02-23T05:23:13;101161.72;;;6.94;100.00
47240;BME280;32978;53.586;10.052;2023-02-23T05:28:10;101170.94;;;6.98;100.00
47240;BME280;32978;53.586;10.052;2023-02-23T05:33:06;101170.69;;;6.94;100.00
47240;BME280;32978;53.586;10.052;2023-02-23T05:38:03;101161.44;;;6.95;100.00
47240;BME280;32978;53.586;10.052;2023-02-23T05:43:00;101168.47;;;7.02;100.00
47240;BME280;32978;53.586;10.052;2023-02-23T05:47:56;101163.25;;;7.05;100.00
47240;BME280;32978;53.586;10.052;2023-02-23T05:52:53;101170.06;;;7.08;100.00
47240;BME280;32978;53.586;10.052;2023-02-23T05:57:49;101168.44;;;7.07;100.00
47240;BME280;32978;53.586;10.052;2023-02-23T06:02:46;101176.06;;;7.05;100.00
47240;BME280;32978;53.586;10.052;2023-02-23T06:07:43;101177.13;;;7.09;100.00
47240;BME280;32978;53.586;10.052;2023-02-23T06:12:39;101181.50;;;7.05;100.00
47240;BME280;32978;53.586;10.052;2023-02-23T06:17:36;101182.56;;;7.09;100.00
47240;BME280;32978;53.586;10.052;2023-02-23T06:22:32;101180.38;;;7.11;100.00
47240;BME280;32978;53.586;10.052;2023-02-23T06:27:29;101189.06;;;7.13;100.00
47240;BME280;32978;53.586;10.052;2023-02-23T06:32:25;101193.91;;;7.16;100.00
47240;BME280;32978;53.586;10.052;2023-02-23T06:37:22;101201.06;;;7.07;100.00
47240;BME280;32978;53.586;10.052;2023-02-23T06:42:18;101204.81;;;7.16;100.00
47240;BME280;32978;53.586;10.052;2023-02-23T06:47:15;101205.91;;;7.10;100.00
47240;BME280;32978;53.586;10.052;2023-02-23T06:52:12;101205.44;;;7.03;100.00
47240;BME280;32978;53.586;10.052;2023-02-23T06:57:09;101214.28;;;7.19;100.00
47240;BME280;32978;53.586;10.052;2023-02-23T07:02:06;101219.00;;;7.08;100.00
47240;BME280;32978;53.586;10.052;2023-02-23T07:07:03;101227.66;;;7.15;100.00
47240;BME280;32978;53.586;10.052;2023-02-23T07:11:59;101232.34;;;7.04;100.00
47240;BME280;32978;53.586;10.052;2023-02-23T07:16:56;101240.75;;;7.08;100.00
47240;BME280;32978;53.586;10.052;2023-02-23T07:21:53;101236.44;;;7.02;100.00
47240;BME280;32978;53.586;10.052;2023-02-23T07:26:49;101255.50;;;6.97;100.00
47240;BME280;32978;53.586;10.052;2023-02-23T07:31:47;101247.97;;;6.83;100.00
47240;BME280;32978;53.586;10.052;2023-02-23T07:36:45;101250.88;;;6.97;100.00
47240;BME280;32978;53.586;10.052;2023-02-23T07:41:41;101254.94;;;7.00;100.00
47240;BME280;32978;53.586;10.052;2023-02-23T07:46:38;101260.44;;;6.89;100.00
47240;BME280;32978;53.586;10.052;2023-02-23T07:51:34;101259.34;;;6.90;100.00
47240;BME280;32978;53.586;10.052;2023-02-23T07:56:31;101267.44;;;7.01;100.00
47240;BME280;32978;53.586;10.052;2023-02-23T08:01:28;101275.63;;;6.95;100.00
47240;BME280;32978;53.586;10.052;2023-02-23T08:06:25;101268.00;;;6.98;100.00
47240;BME280;32978;53.586;10.052;2023-02-23T08:11:21;101283.81;;;6.90;100.00
47240;BME280;32978;53.586;10.052;2023-02-23T08:16:18;101283.84;;;6.80;100.00
47240;BME280;32978;53.586;10.052;2023-02-23T08:21:15;101291.19;;;6.74;100.00
47240;BME280;32978;53.586;10.052;2023-02-23T08:26:11;101282.47;;;6.78;100.00
47240;BME280;32978;53.586;10.052;2023-02-23T08:31:08;101288.81;;;6.63;100.00
47240;BME280;32978;53.586;10.052;2023-02-23T08:36:06;101295.84;;;6.69;100.00
47240;BME280;32978;53.586;10.052;2023-02-23T08:41:04;101297.78;;;6.68;100.00
47240;BME280;32978;53.586;10.052;2023-02-23T08:46:00;101293.69;;;6.61;100.00
47240;BME280;32978;53.586;10.052;2023-02-23T08:50:58;101293.44;;;6.62;100.00
47240;BME280;32978;53.586;10.052;2023-02-23T08:55:56;101295.31;;;6.67;100.00
47240;BME280;32978;53.586;10.052;2023-02-23T09:00:52;101295.34;;;6.62;100.00
47240;BME280;32978;53.586;10.052;2023-02-23T09:05:49;101291.53;;;6.58;100.00
47240;BME280;32978;53.586;10.052;2023-02-23T09:10:45;101291.53;;;6.63;100.00
47240;BME280;32978;53.586;10.052;2023-02-23T09:15:42;101291.50;;;6.68;100.00
47240;BME280;32978;53.586;10.052;2023-02-23T09:20:42;101291.72;;;6.82;100.00
47240;BME280;32978;53.586;10.052;2023-02-23T09:25:43;101297.97;;;6.82;100.00
47240;BME280;32978;53.586;10.052;2023-02-23T09:30:41;101297.44;;;6.75;100.00
47240;BME280;32978;53.586;10.052;2023-02-23T09:35:39;101302.06;;;6.85;100.00
47240;BME280;32978;53.586;10.052;2023-02-23T09:40:50;101298.88;;;6.52;100.00
47240;BME280;32978;53.586;10.052;2023-02-23T09:45:50;101305.16;;;6.42;100.00
47240;BME280;32978;53.586;10.052;2023-02-23T09:50:52;101308.44;;;6.34;100.00
47240;BME280;32978;53.586;10.052;2023-02-23T09:55:50;101315.50;;;6.35;100.00
47240;BME280;32978;53.586;10.052;2023-02-23T10:06:19;101329.66;;;6.17;100.00
47240;BME280;32978;53.586;10.052;2023-02-23T10:21:53;101327.97;;;6.46;100.00
47240;BME280;32978;53.586;10.052;2023-02-23T10:26:53;101320.34;;;6.53;100.00
47240;BME280;32978;53.586;10.052;2023-02-23T10:31:56;101318.22;;;6.45;100.00
47240;BME280;32978;53.586;10.052;2023-02-23T10:36:59;101311.69;;;6.46;100.00
47240;BME280;32978;53.586;10.052;2023-02-23T10:41:59;101315.19;;;6.52;100.00
47240;BME280;32978;53.586;10.052;2023-02-23T10:46:59;101322.00;;;6.55;100.00
47240;BME280;32978;53.586;10.052;2023-02-23T10:51:57;101314.38;;;6.51;100.00
47240;BME280;32978;53.586;10.052;2023-02-23T10:56:58;101321.97;;;6.49;100.00
47240;BME280;32978;53.586;10.052;2023-02-23T11:01:54;101333.97;;;6.43;100.00
47240;BME280;32978;53.586;10.052;2023-02-23T11:07:18;101332.09;;;6.18;100.00
47240;BME280;32978;53.586;10.052;2023-02-23T11:17:34;101316.06;;;6.32;100.00
47240;BME280;32978;53.586;10.052;2023-02-23T11:22:33;101304.59;;;6.56;100.00
47240;BME280;32978;53.586;10.052;2023-02-23T11:27:31;101295.19;;;6.98;100.00
47240;BME280;32978;53.586;10.052;2023-02-23T11:32:32;101287.06;;;6.92;100.00
47240;BME280;32978;53.586;10.052;2023-02-23T11:37:34;101284.81;;;7.05;100.00
47240;BME280;32978;53.586;10.052;2023-02-23T11:42:32;101267.44;;;7.01;100.00
47240;BME280;32978;53.586;10.052;2023-02-23T11:47:29;101284.28;;;7.08;100.00
47240;BME280;32978;53.586;10.052;2023-02-23T11:52:28;101267.56;;;6.80;100.00
47240;BME280;32978;53.586;10.052;2023-02-23T11:57:27;101271.75;;;7.07;100.00
47240;BME280;32978;53.586;10.052;2023-02-23T12:02:29;101263.94;;;7.40;100.00
47240;BME280;32978;53.586;10.052;2023-02-23T12:07:36;101262.75;;;7.51;100.00
47240;BME280;32978;53.586;10.052;2023-02-23T12:17:54;101251.84;;;7.16;100.00
47240;BME280;32978;53.586;10.052;2023-02-23T12:22:56;101249.91;;;7.22;100.00
47240;BME280;32978;53.586;10.052;2023-02-23T12:28:22;101254.88;;;7.10;100.00
47240;BME280;32978;53.586;10.052;2023-02-23T12:33:27;101262.53;;;7.08;100.00
47240;BME280;32978;53.586;10.052;2023-02-23T12:38:36;101261.44;;;7.04;100.00
47240;BME280;32978;53.586;10.052;2023-02-23T12:43:46;101262.56;;;6.98;100.00
47240;BME280;32978;53.586;10.052;2023-02-23T12:49:12;101264.19;;;6.99;100.00
47240;BME280;32978;53.586;10.052;2023-02-23T12:54:14;101265.81;;;7.00;100.00
47240;BME280;32978;53.586;10.052;2023-02-23T13:09:52;101254.25;;;7.23;100.00
47240;BME280;32978;53.586;10.052;2023-02-23T13:15:21;101254.00;;;7.20;100.00
47240;BME280;32978;53.586;10.052;2023-02-23T13:25:51;101242.38;;;7.09;100.00
47240;BME280;32978;53.586;10.052;2023-02-23T13:30:53;101234.78;;;7.01;100.00
47240;BME280;32978;53.586;10.052;2023-02-23T13:35:50;101234.44;;;7.12;100.00
47240;BME280;32978;53.586;10.052;2023-02-23T13:40:51;101239.13;;;7.07;100.00
47240;BME280;32978;53.586;10.052;2023-02-23T13:46:29;101237.97;;;7.18;100.00
47240;BME280;32978;53.586;10.052;2023-02-23T13:51:44;101231.91;;;7.26;100.00
47240;BME280;32978;53.586;10.052;2023-02-23T13:56:53;101236.31;;;7.22;100.00
47240;BME280;32978;53.586;10.052;2023-02-23T14:01:52;101229.22;;;7.21;100.00
47240;BME280;32978;53.586;10.052;2023-02-23T14:07:03;101233.56;;;7.27;100.00
47240;BME280;32978;53.586;10.052;2023-02-23T14:12:15;101231.91;;;7.31;100.00
47240;BME280;32978;53.586;10.052;2023-02-23T14:22:17;101232.97;;;7.30;100.00
47240;BME280;32978;53.586;10.052;2023-02-23T14:27:32;101237.34;;;7.26;100.00
47240;BME280;32978;53.586;10.052;2023-02-23T14:32:42;101232.97;;;7.30;100.00
47240;BME280;32978;53.586;10.052;2023-02-23T14:37:40;101229.19;;;7.31;100.00
47240;BME280;32978;53.586;10.052;2023-02-23T14:42:37;101222.69;;;7.27;100.00
47240;BME280;32978;53.586;10.052;2023-02-23T14:47:45;101223.25;;;7.24;100.00
47240;BME280;32978;53.586;10.052;2023-02-23T14:52:42;101227.31;;;7.27;100.00
47240;BME280;32978;53.586;10.052;2023-02-23T14:57:41;101232.44;;;7.33;100.00
47240;BME280;32978;53.586;10.052;2023-02-23T15:02:38;101231.84;;;7.36;100.00
47240;BME280;32978;53.586;10.052;2023-02-23T15:07:49;101241.63;;;7.43;100.00
47240;BME280;32978;53.586;10.052;2023-02-23T15:12:47;101233.97;;;7.45;100.00
47240;BME280;32978;53.586;10.052;2023-02-23T15:17:47;101232.84;;;7.51;100.00
47240;BME280;32978;53.586;10.052;2023-02-23T15:22:47;101234.84;;;7.35;100.00
47240;BME280;32978;53.586;10.052;2023-02-23T15:27:47;101233.47;;;7.37;100.00
47240;BME280;32978;53.586;10.052;2023-02-23T15:32:43;101240.88;;;7.32;100.00
47240;BME280;32978;53.586;10.052;2023-02-23T15:37:43;101259.75;;;7.13;100.00
47240;BME280;32978;53.586;10.052;2023-02-23T15:42:44;101268.50;;;7.05;100.00
47240;BME280;32978;53.586;10.052;2023-02-23T15:47:41;101264.19;;;6.93;100.00
47240;BME280;32978;53.586;10.052;2023-02-23T15:52:47;101259.91;;;6.82;100.00
47240;BME280;32978;53.586;10.052;2023-02-23T15:57:51;101272.47;;;6.73;100.00
47240;BME280;32978;53.586;10.052;2023-02-23T16:02:48;101258.88;;;6.73;100.00
47240;BME280;32978;53.586;10.052;2023-02-23T16:07:45;101271.69;;;6.62;100.00
47240;BME280;32978;53.586;10.052;2023-02-23T16:12:43;101275.56;;;6.41;100.00
47240;BME280;32978;53.586;10.052;2023-02-23T16:17:46;101273.69;;;6.36;100.00
47240;BME280;32978;53.586;10.052;2023-02-23T16:22:44;101273.69;;;6.36;100.00
47240;BME280;32978;53.586;10.052;2023-02-23T16:27:43;101268.25;;;6.36;100.00
47240;BME280;32978;53.586;10.052;2023-02-23T16:32:42;101277.75;;;6.39;100.00
47240;BME280;32978;53.586;10.052;2023-02-23T16:37:57;101275.34;;;6.27;100.00
47240;BME280;32978;53.586;10.052;2023-02-23T16:42:56;101279.69;;;6.18;100.00
47240;BME280;32978;53.586;10.052;2023-02-23T16:47:55;101293.81;;;6.15;100.00
47240;BME280;32978;53.586;10.052;2023-02-23T16:52:57;101293.81;;;6.15;100.00
47240;BME280;32978;53.586;10.052;2023-02-23T16:57:56;101294.91;;;6.08;100.00
47240;BME280;32978;53.586;10.052;2023-02-23T17:02:54;101306.31;;;6.16;100.00
47240;BME280;32978;53.586;10.052;2023-02-23T17:07:51;101290.56;;;5.92;100.00
47240;BME280;32978;53.586;10.052;2023-02-23T17:12:48;101300.31;;;5.93;100.00
47240;BME280;32978;53.586;10.052;2023-02-23T17:17:44;101291.13;;;5.94;100.00
47240;BME280;32978;53.586;10.052;2023-02-23T17:22:41;101284.03;;;5.78;100.00
47240;BME280;32978;53.586;10.052;2023-02-23T17:27:37;101281.84;;;5.49;100.00
47240;BME280;32978;53.586;10.052;2023-02-23T17:32:35;101281.00;;;5.38;100.00
47240;BME280;32978;53.586;10.052;2023-02-23T17:37:32;101285.63;;;5.38;100.00
47240;BME280;32978;53.586;10.052;2023-02-23T17:42:33;101284.53;;;5.34;100.00
47240;BME280;32978;53.586;10.052;2023-02-23T17:47:32;101280.72;;;5.14;100.00
47240;BME280;32978;53.586;10.052;2023-02-23T17:52:29;101284.53;;;5.23;100.00
47240;BME280;32978;53.586;10.052;2023-02-23T17:57:25;101287.78;;;5.31;100.00
47240;BME280;32978;53.586;10.052;2023-02-23T18:02:23;101287.50;;;5.22;100.00
47240;BME280;32978;53.586;10.052;2023-02-23T18:07:20;101281.00;;;5.18;100.00
47240;BME280;32978;53.586;10.052;2023-02-23T18:12:17;101281.75;;;4.98;100.00
47240;BME280;32978;53.586;10.052;2023-02-23T18:17:14;101277.94;;;4.89;100.00
47240;BME280;32978;53.586;10.052;2023-02-23T18:22:11;101279.84;;;5.03;100.00
47240;BME280;32978;53.586;10.052;2023-02-23T18:27:09;101275.28;;;5.04;100.00
47240;BME280;32978;53.586;10.052;2023-02-23T18:32:05;101280.16;;;5.07;100.00
47240;BME280;32978;53.586;10.052;2023-02-23T18:37:03;101278.47;;;4.85;100.00
47240;BME280;32978;53.586;10.052;2023-02-23T18:42:00;101275.50;;;4.92;100.00
47240;BME280;32978;53.586;10.052;2023-02-23T18:46:59;101270.03;;;4.77;100.00
47240;BME280;32978;53.586;10.052;2023-02-23T18:51:56;101282.53;;;4.83;100.00
47240;BME280;32978;53.586;10.052;2023-02-23T18:56:53;101276.53;;;4.76;100.00
47240;BME280;32978;53.586;10.052;2023-02-23T19:01:51;101275.16;;;4.73;100.00
47240;BME280;32978;53.586;10.052;2023-02-23T19:06:47;101282.69;;;4.61;100.00
47240;BME280;32978;53.586;10.052;2023-02-23T19:11:44;101281.56;;;4.52;100.00
47240;BME280;32978;53.586;10.052;2023-02-23T19:16:41;101281.16;;;4.22;100.00
47240;BME280;32978;53.586;10.052;2023-02-23T19:21:38;101268.75;;;3.94;100.00
47240;BME280;32978;53.586;10.052;2023-02-23T19:26:35;101282.25;;;3.89;100.00
47240;BME280;32978;53.586;10.052;2023-02-23T19:31:32;101278.06;;;3.71;100.00
47240;BME280;32978;53.586;10.052;2023-02-23T19:36:29;101274.47;;;3.61;100.00
47240;BME280;32978;53.586;10.052;2023-02-23T19:41:26;101284.25;;;3.67;100.00
47240;BME280;32978;53.586;10.052;2023-02-23T19:46:23;101274.34;;;3.83;100.00
47240;BME280;32978;53.586;10.052;2023-02-23T19:51:23;101278.69;;;3.84;100.00
47240;BME280;32978;53.586;10.052;2023-02-23T19:56:20;101279.34;;;3.64;100.00
47240;BME280;32978;53.586;10.052;2023-02-23T20:01:19;101288.97;;;3.49;100.00
47240;BME280;32978;53.586;10.052;2023-02-23T20:06:16;101289.94;;;3.38;100.00
47240;BME280;32978;53.586;10.052;2023-02-23T20:11:13;101284.16;;;3.29;100.00
47240;BME280;32978;53.586;10.052;2023-02-23T20:16:13;101288.25;;;3.32;100.00
47240;BME280;32978;53.586;10.052;2023-02-23T20:21:19;101281.22;;;3.31;100.00
47240;BME280;32978;53.586;10.052;2023-02-23T20:26:22;101288.78;;;3.34;100.00
47240;BME280;32978;53.586;10.052;2023-02-23T20:31:23;101286.94;;;3.34;100.00
47240;BME280;32978;53.586;10.052;2023-02-23T20:36:24;101284.56;;;3.43;100.00
47240;BME280;32978;53.586;10.052;2023-02-23T20:41:20;101287.78;;;3.40;100.00
47240;BME280;32978;53.586;10.052;2023-02-23T20:46:18;101286.22;;;3.44;100.00
47240;BME280;32978;53.586;10.052;2023-02-23T20:51:16;101274.06;;;3.47;100.00
47240;BME280;32978;53.586;10.052;2023-02-23T20:56:17;101270.81;;;3.45;100.00
47240;BME280;32978;53.586;10.052;2023-02-23T21:01:19;101274.28;;;3.40;100.00
47240;BME280;32978;53.586;10.052;2023-02-23T21:06:20;101268.44;;;3.53;100.00
47240;BME280;32978;53.586;10.052;2023-02-23T21:11:18;101276.00;;;3.51;100.00
47240;BME280;32978;53.586;10.052;2023-02-23T21:16:17;101276.00;;;3.51;100.00
47240;BME280;32978;53.586;10.052;2023-02-23T21:21:14;101261.84;;;3.39;100.00
47240;BME280;32978;53.586;10.052;2023-02-23T21:26:11;101260.78;;;3.45;100.00
47240;BME280;32978;53.586;10.052;2023-02-23T21:31:10;101249.50;;;3.48;100.00
47240;BME280;32978;53.586;10.052;2023-02-23T21:36:08;101247.31;;;3.50;100.00
47240;BME280;32978;53.586;10.052;2023-02-23T21:41:07;101246.81;;;3.53;100.00
47240;BME280;32978;53.586;10.052;2023-02-23T21:46:08;101246.00;;;3.53;100.00
47240;BME280;32978;53.586;10.052;2023-02-23T21:51:08;101249.25;;;3.55;100.00
47240;BME280;32978;53.586;10.052;2023-02-23T21:56:08;101236.59;;;3.61;100.00
47240;BME280;32978;53.586;10.052;2023-02-23T22:01:10;101234.66;;;3.56;100.00
47240;BME280;32978;53.586;10.052;2023-02-23T22:06:07;101226.34;;;3.63;100.00
47240;BME280;32978;53.586;10.052;2023-02-23T22:11:09;101219.03;;;3.63;100.00
47240;BME280;32978;53.586;10.052;2023-02-23T22:16:06;101214.97;;;3.61;100.00
47240;BME280;32978;53.586;10.052;2023-02-23T22:21:03;101209.56;;;3.61;100.00
47240;BME280;32978;53.586;10.052;2023-02-23T22:26:00;101203.59;;;3.58;100.00
47240;BME280;32978;53.586;10.052;2023-02-23T22:31:07;101202.81;;;3.63;100.00
47240;BME280;32978;53.586;10.052;2023-02-23T22:36:06;101193.91;;;3.63;100.00
47240;BME280;32978;53.586;10.052;2023-02-23T22:41:03;101199.34;;;3.68;100.00
47240;BME280;32978;53.586;10.052;2023-02-23T22:46:03;101185.19;;;3.55;100.00
47240;BME280;32978;53.586;10.052;2023-02-23T22:51:01;101174.88;;;3.52;100.00
47240;BME280;32978;53.586;10.052;2023-02-23T22:55:58;101190.00;;;3.48;100.00
47240;BME280;32978;53.586;10.052;2023-02-23T23:00:55;101183.63;;;3.65;100.00
47240;BME280;32978;53.586;10.052;2023-02-23T23:06:06;101161.69;;;3.61;100.00
47240;BME280;32978;53.586;10.052;2023-02-23T23:11:11;101157.03;;;3.51;100.00
47240;BME280;32978;53.586;10.052;2023-02-23T23:16:08;101146.19;;;3.46;100.00
47240;BME280;32978;53.586;10.052;2023-02-23T23:21:22;101138.53;;;3.33;100.00
47240;BME280;32978;53.586;10.052;2023-02-23T23:26:21;101134.22;;;3.37;100.00
47240;BME280;32978;53.586;10.052;2023-02-23T23:31:21;101130.44;;;3.38;100.00
47240;BME280;32978;53.586;10.052;2023-02-23T23:36:23;101134.13;;;3.27;100.00
47240;BME280;32978;53.586;10.052;2023-02-23T23:41:20;101132.34;;;3.05;100.00
47240;BME280;32978;53.586;10.052;2023-02-23T23:46:18;101134.88;;;2.85;100.00
47240;BME280;32978;53.586;10.052;2023-02-23T23:51:24;101122.72;;;2.87;100.00
47240;BME280;32978;53.586;10.052;2023-02-23T23:56:22;101115.47;;;2.88;100.00
